createdAt,value
2018-05-19T00:01:17.966Z,12.20
2018-05-19T00:03:45.498Z,12.30
2018-05-19T00:06:13.078Z,12.40
2018-05-19T00:08:40.605Z,12.60
2018-05-19T00:11:08.201Z,12.60
2018-05-19T00:13:35.728Z,12.50
2018-05-19T00:16:03.285Z,12.40
2018-05-19T00:18:30.953Z,12.40
2018-05-19T00:20:58.492Z,12.40
2018-05-19T00:23:26.148Z,12.20
2018-05-19T00:25:53.724Z,12.10
2018-05-19T00:28:21.279Z,12.10
2018-05-19T00:30:48.961Z,12.00
2018-05-19T00:33:16.568Z,12.00
2018-05-19T00:35:44.133Z,11.80
2018-05-19T00:38:11.773Z,11.80
2018-05-19T00:40:40.176Z,11.80
2018-05-19T00:43:07.705Z,11.80
2018-05-19T00:45:36.198Z,11.80
2018-05-19T00:48:03.789Z,11.80
2018-05-19T00:50:31.361Z,11.70
2018-05-19T00:52:58.929Z,11.70
2018-05-19T00:55:26.566Z,11.70
2018-05-19T00:57:54.161Z,11.70
2018-05-19T01:00:23.227Z,11.70
2018-05-19T01:02:50.772Z,11.70
2018-05-19T01:05:18.432Z,11.80
2018-05-19T01:07:45.988Z,11.70
2018-05-19T01:10:13.650Z,11.70
2018-05-19T01:12:41.277Z,11.70
2018-05-19T01:15:09.621Z,11.80
2018-05-19T01:17:37.140Z,11.90
2018-05-19T01:20:04.681Z,11.90
2018-05-19T01:22:32.239Z,11.70
2018-05-19T01:25:00.129Z,11.70
2018-05-19T01:27:27.676Z,11.60
2018-05-19T01:29:55.312Z,11.50
2018-05-19T01:32:23.684Z,11.40
2018-05-19T01:34:51.974Z,11.40
2018-05-19T01:37:19.556Z,11.40
2018-05-19T01:39:47.200Z,11.40
2018-05-19T01:42:14.765Z,11.40
2018-05-19T01:44:42.294Z,11.70
2018-05-19T01:47:10.628Z,11.50
2018-05-19T01:49:38.209Z,11.40
2018-05-19T01:52:06.532Z,11.40
2018-05-19T01:54:34.076Z,11.40
2018-05-19T01:57:02.385Z,11.20
2018-05-19T01:59:30.342Z,11.20
2018-05-19T02:01:57.869Z,11.20
2018-05-19T02:04:26.189Z,11.30
2018-05-19T02:06:53.717Z,11.30
2018-05-19T02:09:21.362Z,11.30
2018-05-19T02:11:49.674Z,11.30
2018-05-19T02:14:17.290Z,11.30
2018-05-19T02:16:44.970Z,11.20
2018-05-19T02:19:12.520Z,11.20
2018-05-19T02:21:40.913Z,11.20
2018-05-19T02:24:08.556Z,11.20
2018-05-19T02:26:36.851Z,11.10
2018-05-19T02:29:04.417Z,11.10
2018-05-19T02:31:31.953Z,11.00
2018-05-19T02:34:00.272Z,11.00
2018-05-19T02:36:27.815Z,10.90
2018-05-19T02:38:55.421Z,11.00
2018-05-19T02:41:23.745Z,11.00
2018-05-19T02:43:51.273Z,11.10
2018-05-19T02:46:19.670Z,11.10
2018-05-19T02:48:47.426Z,11.10
2018-05-19T02:51:15.810Z,11.00
2018-05-19T02:53:43.364Z,11.00
2018-05-19T02:56:10.913Z,11.10
2018-05-19T02:58:39.197Z,11.00
2018-05-19T03:01:06.760Z,11.00
2018-05-19T03:03:34.289Z,11.00
2018-05-19T03:06:01.848Z,11.00
2018-05-19T03:08:30.161Z,10.90
2018-05-19T03:10:57.716Z,10.90
2018-05-19T03:13:25.252Z,10.90
2018-05-19T03:15:53.569Z,10.90
2018-05-19T03:18:21.098Z,10.80
2018-05-19T03:20:48.715Z,10.90
2018-05-19T03:23:16.242Z,10.90
2018-05-19T03:25:43.826Z,10.70
2018-05-19T03:28:11.442Z,10.70
2018-05-19T03:30:39.204Z,10.60
2018-05-19T03:33:06.908Z,10.50
2018-05-19T03:35:34.880Z,10.50
2018-05-19T03:38:02.418Z,10.40
2018-05-19T03:40:29.965Z,10.40
2018-05-19T03:42:57.501Z,10.50
2018-05-19T03:45:25.033Z,10.50
2018-05-19T03:47:53.434Z,10.50
2018-05-19T03:50:21.721Z,10.50
2018-05-19T03:52:49.275Z,10.60
2018-05-19T03:55:16.817Z,10.60
2018-05-19T04:01:02.900Z,10.60
2018-05-19T04:03:30.449Z,10.60
2018-05-19T04:05:58.061Z,10.60
2018-05-19T04:08:25.622Z,10.60
2018-05-19T04:10:53.182Z,10.60
2018-05-19T04:13:20.734Z,10.60
2018-05-19T04:15:48.282Z,10.50
2018-05-19T04:18:15.813Z,10.50
2018-05-19T04:20:43.388Z,10.60
2018-05-19T04:23:11.679Z,10.70
2018-05-19T04:25:39.241Z,10.70
2018-05-19T04:28:06.789Z,10.70
2018-05-19T04:30:35.120Z,10.50
2018-05-19T04:33:02.649Z,10.50
2018-05-19T04:35:30.217Z,10.50
2018-05-19T04:37:57.741Z,10.60
2018-05-19T04:40:25.301Z,10.50
2018-05-19T04:42:52.833Z,10.50
2018-05-19T04:45:20.472Z,10.50
2018-05-19T04:47:48.037Z,10.50
2018-05-19T04:50:15.698Z,10.50
2018-05-19T04:52:43.236Z,10.60
2018-05-19T04:55:10.913Z,10.60
2018-05-19T04:57:38.836Z,10.60
2018-05-19T05:00:06.426Z,10.60
2018-05-19T05:02:34.193Z,10.60
2018-05-19T05:05:01.750Z,10.50
2018-05-19T05:07:29.368Z,10.60
2018-05-19T05:09:57.005Z,10.70
2018-05-19T05:12:25.421Z,10.70
2018-05-19T05:14:52.960Z,10.70
2018-05-19T05:17:21.428Z,10.80
2018-05-19T05:19:49.736Z,10.90
2018-05-19T05:22:17.306Z,10.90
2018-05-19T05:24:44.832Z,10.90
2018-05-19T05:27:12.480Z,10.80
2018-05-19T05:29:40.158Z,10.90
2018-05-19T05:32:07.698Z,10.90
2018-05-19T05:34:36.005Z,11.20
2018-05-19T05:37:03.618Z,11.20
2018-05-19T05:39:31.200Z,11.20
2018-05-19T05:41:59.497Z,11.30
2018-05-19T05:44:27.145Z,11.30
2018-05-19T05:46:55.458Z,11.10
2018-05-19T05:49:23.177Z,11.00
2018-05-19T05:51:51.486Z,11.40
2018-05-19T05:54:19.107Z,11.30
2018-05-19T05:56:47.462Z,11.60
2018-05-19T05:59:15.031Z,11.60
2018-05-19T06:01:42.559Z,12.40
2018-05-19T06:04:10.114Z,12.10
2018-05-19T06:06:37.745Z,12.00
2018-05-19T06:09:06.024Z,12.20
2018-05-19T06:11:33.549Z,12.10
2018-05-19T06:14:01.865Z,12.20
2018-05-19T06:16:29.418Z,12.20
2018-05-19T06:18:57.422Z,12.40
2018-05-19T06:21:24.918Z,11.90
2018-05-19T06:23:53.228Z,11.80
2018-05-19T06:26:20.783Z,11.80
2018-05-19T06:28:48.342Z,11.90
2018-05-19T06:31:15.956Z,12.00
2018-05-19T06:33:43.517Z,12.10
2018-05-19T06:36:11.853Z,12.00
2018-05-19T06:38:39.366Z,12.20
2018-05-19T06:41:06.932Z,12.90
2018-05-19T06:43:35.218Z,13.10
2018-05-19T06:46:02.838Z,12.70
2018-05-19T06:48:31.184Z,12.30
2018-05-19T06:50:58.734Z,12.40
2018-05-19T06:53:26.297Z,12.40
2018-05-19T06:55:53.887Z,12.70
2018-05-19T06:58:22.356Z,12.80
2018-05-19T07:00:49.904Z,13.30
2018-05-19T07:03:17.456Z,13.30
2018-05-19T07:05:45.039Z,12.70
2018-05-19T07:08:12.683Z,12.70
2018-05-19T07:10:40.189Z,13.10
2018-05-19T07:13:07.809Z,13.50
2018-05-19T07:15:35.331Z,13.90
2018-05-19T07:18:02.891Z,13.70
2018-05-19T07:20:30.416Z,13.70
2018-05-19T07:22:57.960Z,13.40
2018-05-19T07:25:26.386Z,14.00
2018-05-19T07:27:53.905Z,14.00
2018-05-19T07:30:21.458Z,14.10
2018-05-19T07:32:49.972Z,15.10
2018-05-19T07:35:17.516Z,14.70
2018-05-19T07:37:45.058Z,13.80
2018-05-19T07:40:13.381Z,14.60
2018-05-19T07:42:40.942Z,15.20
2018-05-19T07:45:08.641Z,15.30
2018-05-19T07:47:37.166Z,15.60
2018-05-19T07:50:04.716Z,14.40
2018-05-19T07:52:32.292Z,14.00
2018-05-19T07:54:59.861Z,14.10
2018-05-19T07:57:27.442Z,14.30
2018-05-19T07:59:55.040Z,14.70
2018-05-19T08:02:22.751Z,15.90
2018-05-19T08:04:51.793Z,17.10
2018-05-19T08:07:19.366Z,17.70
2018-05-19T08:09:46.905Z,15.90
2018-05-19T08:12:14.461Z,15.00
2018-05-19T08:14:42.845Z,15.10
2018-05-19T08:17:11.156Z,15.90
2018-05-19T08:19:38.684Z,15.60
2018-05-19T08:22:06.245Z,15.40
2018-05-19T08:24:33.953Z,15.60
2018-05-19T08:27:01.526Z,15.80
2018-05-19T08:29:29.170Z,15.90
2018-05-19T08:31:56.753Z,16.50
2018-05-19T08:34:25.257Z,17.20
2018-05-19T08:36:53.685Z,17.50
2018-05-19T08:39:21.226Z,17.50
2018-05-19T08:41:48.943Z,17.30
2018-05-19T08:44:17.271Z,17.90
2018-05-19T08:46:44.819Z,17.60
2018-05-19T08:49:12.368Z,17.70
2018-05-19T08:51:39.991Z,18.30
2018-05-19T08:54:08.313Z,17.50
2018-05-19T08:56:35.860Z,17.50
2018-05-19T08:59:03.417Z,17.80
2018-05-19T09:01:30.952Z,17.50
2018-05-19T09:03:58.521Z,17.80
2018-05-19T09:06:26.579Z,17.30
2018-05-19T09:08:54.982Z,17.40
2018-05-19T09:11:22.512Z,18.10
2018-05-19T09:13:50.813Z,18.30
2018-05-19T09:16:19.119Z,19.10
2018-05-19T09:18:46.806Z,19.90
2018-05-19T09:21:14.406Z,19.90
2018-05-19T09:23:41.957Z,20.10
2018-05-19T09:26:09.498Z,20.10
2018-05-19T09:28:37.056Z,19.30
2018-05-19T09:31:04.609Z,19.20
2018-05-19T09:33:32.940Z,19.30
2018-05-19T09:36:00.493Z,18.10
2018-05-19T09:38:28.023Z,17.30
2018-05-19T09:40:55.673Z,17.20
2018-05-19T09:43:23.967Z,16.70
2018-05-19T09:45:52.293Z,17.90
2018-05-19T09:48:19.829Z,17.90
2018-05-19T09:50:47.390Z,18.50
2018-05-19T09:53:14.938Z,18.80
2018-05-19T09:55:42.502Z,18.80
2018-05-19T09:58:10.178Z,18.90
2018-05-19T10:00:37.820Z,19.00
2018-05-19T10:03:05.384Z,17.50
2018-05-19T10:05:32.909Z,17.40
2018-05-19T10:08:00.482Z,17.70
2018-05-19T10:10:28.013Z,18.30
2018-05-19T10:12:55.569Z,18.30
2018-05-19T10:15:23.103Z,18.30
2018-05-19T10:17:50.812Z,19.50
2018-05-19T10:20:18.346Z,20.20
2018-05-19T10:22:46.010Z,19.70
2018-05-19T10:25:13.562Z,19.00
2018-05-19T10:27:41.128Z,19.20
2018-05-19T10:30:08.694Z,18.90
2018-05-19T10:32:36.289Z,19.10
2018-05-19T10:35:03.866Z,18.70
2018-05-19T10:37:31.373Z,18.30
2018-05-19T10:39:58.977Z,18.20
2018-05-19T10:42:26.502Z,17.60
2018-05-19T10:44:54.232Z,17.50
2018-05-19T10:47:22.512Z,17.60
2018-05-19T10:49:50.051Z,17.40
2018-05-19T10:52:18.366Z,18.10
2018-05-19T10:54:45.917Z,18.10
2018-05-19T10:57:13.456Z,19.20
2018-05-19T10:59:41.781Z,20.70
2018-05-19T11:02:09.350Z,20.70
2018-05-19T11:04:36.881Z,21.10
2018-05-19T11:07:04.457Z,20.60
2018-05-19T11:09:31.981Z,19.80
2018-05-19T11:11:59.805Z,20.60
2018-05-19T11:14:28.225Z,20.70
2018-05-19T11:16:55.927Z,20.60
2018-05-19T11:19:23.457Z,22.30
2018-05-19T11:21:51.009Z,23.20
2018-05-19T11:24:18.758Z,23.40
2018-05-19T11:26:46.285Z,22.70
2018-05-19T11:29:14.777Z,21.00
2018-05-19T11:31:43.070Z,20.90
2018-05-19T11:34:10.780Z,20.90
2018-05-19T11:36:38.329Z,19.50
2018-05-19T11:39:05.883Z,19.60
2018-05-19T11:41:33.489Z,19.90
2018-05-19T11:44:01.150Z,20.40
2018-05-19T11:46:29.440Z,20.00
2018-05-19T11:48:57.023Z,20.00
2018-05-19T11:51:24.556Z,19.70
2018-05-19T11:53:52.107Z,19.60
2018-05-19T11:56:20.409Z,19.50
2018-05-19T11:58:47.961Z,20.70
2018-05-19T12:01:15.521Z,20.70
2018-05-19T12:03:43.086Z,20.70
2018-05-19T12:06:10.628Z,20.10
2018-05-19T12:08:38.157Z,19.60
2018-05-19T12:11:06.488Z,20.00
2018-05-19T12:13:34.016Z,19.80
2018-05-19T12:16:01.578Z,19.60
2018-05-19T12:18:29.118Z,19.60
2018-05-19T12:20:57.441Z,19.90
2018-05-19T12:23:24.990Z,20.10
2018-05-19T12:25:52.560Z,19.70
2018-05-19T12:28:20.165Z,20.00
2018-05-19T12:30:48.538Z,20.20
2018-05-19T12:33:17.052Z,19.80
2018-05-19T12:35:44.621Z,19.40
2018-05-19T12:38:12.148Z,19.20
2018-05-19T12:40:39.704Z,19.60
2018-05-19T12:43:08.184Z,19.70
2018-05-19T12:45:36.590Z,19.90
2018-05-19T12:48:04.194Z,19.90
2018-05-19T12:50:31.824Z,19.50
2018-05-19T12:52:59.379Z,19.70
2018-05-19T12:55:26.918Z,19.80
2018-05-19T12:57:54.482Z,19.80
2018-05-19T13:00:22.020Z,19.60
2018-05-19T13:02:49.581Z,20.10
2018-05-19T13:05:17.121Z,19.90
2018-05-19T13:07:45.536Z,20.00
2018-05-19T13:10:13.163Z,20.20
2018-05-19T13:12:41.519Z,19.90
2018-05-19T13:15:09.017Z,19.80
2018-05-19T13:17:36.702Z,20.00
2018-05-19T13:20:04.613Z,20.30
2018-05-19T13:22:32.669Z,20.30
2018-05-19T13:25:00.433Z,20.30
2018-05-19T13:27:28.813Z,19.80
2018-05-19T13:29:56.354Z,19.70
2018-05-19T13:32:23.869Z,19.60
2018-05-19T13:34:51.595Z,19.90
2018-05-19T13:37:19.085Z,19.60
2018-05-19T13:39:46.657Z,20.00
2018-05-19T13:42:14.236Z,20.10
2018-05-19T13:44:42.054Z,20.30
2018-05-19T13:47:10.462Z,20.30
2018-05-19T13:49:38.794Z,19.80
2018-05-19T13:52:07.154Z,20.10
2018-05-19T13:54:35.457Z,20.20
2018-05-19T13:59:32.047Z,19.90
2018-05-19T14:01:59.769Z,19.60
2018-05-19T14:04:28.103Z,19.80
2018-05-19T14:06:55.648Z,19.90
2018-05-19T14:09:23.596Z,20.10
2018-05-19T14:11:51.149Z,19.70
2018-05-19T14:14:18.664Z,19.80
2018-05-19T14:16:46.222Z,19.60
2018-05-19T14:19:13.782Z,19.90
2018-05-19T14:21:41.497Z,19.90
2018-05-19T14:24:09.005Z,19.70
2018-05-19T14:26:36.603Z,19.80
2018-05-19T14:29:04.138Z,19.80
2018-05-19T14:31:32.417Z,20.00
2018-05-19T14:34:00.745Z,19.70
2018-05-19T14:36:28.296Z,19.90
2018-05-19T14:38:55.880Z,19.90
2018-05-19T14:41:23.432Z,19.80
2018-05-19T14:43:50.985Z,19.50
2018-05-19T14:46:18.525Z,19.60
2018-05-19T14:48:46.073Z,19.50
2018-05-19T14:51:13.605Z,19.70
2018-05-19T14:53:41.241Z,19.90
2018-05-19T14:56:08.782Z,19.70
2018-05-19T14:58:36.361Z,19.80
2018-05-19T15:01:04.853Z,19.60
2018-05-19T15:03:33.183Z,19.90
2018-05-19T15:06:00.705Z,20.00
2018-05-19T15:08:28.405Z,20.00
2018-05-19T15:10:55.970Z,20.00
2018-05-19T15:13:23.592Z,19.90
2018-05-19T15:15:51.189Z,19.90
2018-05-19T15:18:18.737Z,20.00
2018-05-19T15:20:46.461Z,19.90
2018-05-19T15:23:14.202Z,19.90
2018-05-19T15:25:41.669Z,19.90
2018-05-19T15:28:09.983Z,19.90
2018-05-19T15:30:37.736Z,19.90
2018-05-19T15:33:05.412Z,19.90
2018-05-19T15:35:32.875Z,19.90
2018-05-19T15:38:00.478Z,19.70
2018-05-19T15:40:28.777Z,19.70
2018-05-19T15:42:56.410Z,19.80
2018-05-19T15:45:24.729Z,20.00
2018-05-19T15:47:52.261Z,19.90
2018-05-19T15:50:19.811Z,19.90
2018-05-19T15:52:48.108Z,19.90
2018-05-19T15:55:15.773Z,19.90
2018-05-19T15:57:43.297Z,19.90
2018-05-19T16:00:11.773Z,19.90
2018-05-19T16:02:40.074Z,20.10
2018-05-19T16:05:07.604Z,20.00
2018-05-19T16:07:35.939Z,19.90
2018-05-19T16:10:03.594Z,19.90
2018-05-19T16:12:31.129Z,20.20
2018-05-19T16:14:58.700Z,20.10
2018-05-19T16:17:26.352Z,20.10
2018-05-19T16:19:53.885Z,20.10
2018-05-19T16:22:22.280Z,20.30
2018-05-19T16:24:49.821Z,20.30
2018-05-19T16:27:18.416Z,20.00
2018-05-19T16:29:45.929Z,20.00
2018-05-19T16:32:14.245Z,19.70
2018-05-19T16:34:41.840Z,19.80
2018-05-19T16:37:09.556Z,19.80
2018-05-19T16:39:37.956Z,19.90
2018-05-19T16:42:05.504Z,20.00
2018-05-19T16:44:33.047Z,20.20
2018-05-19T16:47:01.048Z,19.90
2018-05-19T16:49:29.426Z,19.80
2018-05-19T16:51:56.957Z,19.80
2018-05-19T16:54:25.290Z,19.90
2018-05-19T16:56:52.800Z,19.70
2018-05-19T16:59:20.345Z,19.90
2018-05-19T17:01:48.651Z,20.00
2018-05-19T17:04:16.194Z,19.70
2018-05-19T17:06:43.733Z,19.40
2018-05-19T17:09:12.058Z,19.40
2018-05-19T17:11:39.585Z,19.40
2018-05-19T17:14:07.540Z,19.40
2018-05-19T17:16:35.497Z,19.30
2018-05-19T17:19:03.833Z,19.20
2018-05-19T17:21:31.350Z,19.20
2018-05-19T17:23:58.897Z,19.40
2018-05-19T17:26:27.217Z,19.30
2018-05-19T17:28:55.508Z,19.30
2018-05-19T17:31:23.067Z,19.20
2018-05-19T17:33:50.589Z,19.20
2018-05-19T17:36:18.137Z,19.20
2018-05-19T17:38:45.657Z,19.10
2018-05-19T17:41:13.225Z,19.10
2018-05-19T17:43:41.538Z,19.10
2018-05-19T17:46:09.078Z,19.10
2018-05-19T17:48:36.612Z,19.20
2018-05-19T17:51:04.165Z,19.20
2018-05-19T17:53:31.682Z,19.10
2018-05-19T17:55:59.256Z,19.00
2018-05-19T17:58:26.793Z,19.00
2018-05-19T18:00:54.398Z,18.90
2018-05-19T18:03:21.981Z,18.90
2018-05-19T18:05:50.493Z,18.90
2018-05-19T18:08:18.041Z,19.00
2018-05-19T18:10:45.636Z,18.90
2018-05-19T18:13:13.595Z,18.80
2018-05-19T18:15:41.157Z,18.70
2018-05-19T18:18:08.719Z,18.70
2018-05-19T18:20:36.321Z,18.60
2018-05-19T18:23:03.883Z,18.70
2018-05-19T18:25:32.190Z,18.60
2018-05-19T18:27:59.866Z,18.50
2018-05-19T18:30:27.426Z,18.50
2018-05-19T18:32:54.973Z,18.40
2018-05-19T18:35:22.685Z,18.50
2018-05-19T18:37:51.172Z,18.40
2018-05-19T18:40:19.472Z,18.40
2018-05-19T18:42:47.024Z,18.30
2018-05-19T18:45:14.589Z,18.30
2018-05-19T18:47:42.217Z,18.40
2018-05-19T18:50:10.532Z,18.30
2018-05-19T18:52:50.012Z,18.30
2018-05-19T18:55:17.969Z,18.30
2018-05-19T18:57:45.531Z,18.30
2018-05-19T19:00:13.053Z,18.20
2018-05-19T19:02:40.714Z,18.20
2018-05-19T19:05:08.263Z,18.20
2018-05-19T19:07:35.961Z,18.10
2018-05-19T19:10:03.933Z,18.10
2018-05-19T19:12:31.505Z,18.40
2018-05-19T19:14:59.057Z,18.50
2018-05-19T19:17:26.601Z,18.40
2018-05-19T19:19:54.929Z,17.90
2018-05-19T19:22:22.829Z,17.70
2018-05-19T19:24:50.394Z,17.50
2018-05-19T19:27:17.941Z,17.30
2018-05-19T19:29:45.476Z,17.20
2018-05-19T19:32:13.143Z,17.30
2018-05-19T19:34:40.585Z,17.10
2018-05-19T19:37:08.157Z,16.80
2018-05-19T19:39:36.081Z,16.70
2018-05-19T19:42:03.788Z,16.50
2018-05-19T19:44:31.728Z,16.40
2018-05-19T19:46:59.285Z,16.40
2018-05-19T19:49:27.197Z,16.40
2018-05-19T19:51:54.744Z,16.40
2018-05-19T19:54:22.681Z,16.40
2018-05-19T19:56:51.122Z,16.30
2018-05-19T19:59:18.677Z,16.30
2018-05-19T20:01:46.184Z,16.30
2018-05-19T20:04:14.521Z,16.30
2018-05-19T20:06:42.107Z,16.20
2018-05-19T20:09:10.395Z,16.20
2018-05-19T20:11:37.977Z,16.30
2018-05-19T20:14:05.610Z,16.30
2018-05-19T20:16:33.207Z,16.20
2018-05-19T20:19:00.768Z,16.30
2018-05-19T20:21:28.501Z,16.10
2018-05-19T20:23:56.068Z,15.90
2018-05-19T20:26:23.604Z,16.00
2018-05-19T20:28:51.562Z,15.90
2018-05-19T20:31:19.906Z,15.40
2018-05-19T20:33:47.845Z,15.20
2018-05-19T20:36:15.401Z,15.40
2018-05-19T20:38:42.960Z,15.30
2018-05-19T20:41:10.569Z,15.50
2018-05-19T20:43:38.121Z,15.50
2018-05-19T20:46:05.689Z,15.50
2018-05-19T20:48:33.992Z,15.60
2018-05-19T20:51:01.573Z,15.40
2018-05-19T20:53:29.485Z,15.30
2018-05-19T20:55:57.597Z,15.40
2018-05-19T20:58:25.117Z,15.50
2018-05-19T21:00:52.712Z,15.50
2018-05-19T21:03:20.636Z,15.40
2018-05-19T21:05:48.284Z,15.40
2018-05-19T21:08:16.449Z,15.30
2018-05-19T21:10:43.974Z,15.20
2018-05-19T21:13:11.538Z,15.30
2018-05-19T21:15:39.099Z,15.30
2018-05-19T21:18:07.034Z,15.40
2018-05-19T21:20:35.336Z,15.30
2018-05-19T21:23:02.879Z,15.30
2018-05-19T21:25:31.210Z,15.30
2018-05-19T21:27:58.853Z,15.30
2018-05-19T21:30:26.564Z,15.30
2018-05-19T21:32:54.889Z,15.20
2018-05-19T21:35:22.490Z,15.20
2018-05-19T21:37:49.985Z,15.00
2018-05-19T21:40:17.580Z,15.10
2018-05-19T21:42:45.149Z,15.10
2018-05-19T21:45:12.656Z,15.10
2018-05-19T21:47:40.713Z,15.10
2018-05-19T21:50:08.256Z,15.00
2018-05-19T21:52:36.188Z,14.90
2018-05-19T21:55:03.769Z,14.90
2018-05-19T21:57:32.597Z,14.80
2018-05-19T22:00:00.906Z,14.80
2018-05-19T22:02:28.430Z,14.50
2018-05-19T22:04:55.999Z,14.70
2018-05-19T22:07:23.521Z,14.80
2018-05-19T22:09:51.916Z,14.90
2018-05-19T22:12:19.549Z,15.00
2018-05-19T22:14:48.036Z,15.10
2018-05-19T22:17:16.441Z,14.90
2018-05-19T22:19:44.009Z,14.70
2018-05-19T22:22:11.537Z,14.60
2018-05-19T22:24:39.826Z,14.60
2018-05-19T22:27:07.342Z,14.90
2018-05-19T22:29:34.864Z,14.90
2018-05-19T22:32:02.421Z,14.90
2018-05-19T22:34:29.945Z,14.90
2018-05-19T22:36:59.028Z,14.70
2018-05-19T22:39:26.984Z,14.70
2018-05-19T22:41:54.618Z,14.70
2018-05-19T22:44:22.153Z,14.90
2018-05-19T22:46:49.883Z,14.90
2018-05-19T22:49:18.204Z,15.00
2018-05-19T22:51:45.826Z,15.00
2018-05-19T22:54:14.117Z,15.00
2018-05-19T22:56:41.736Z,15.00
2018-05-19T22:59:09.291Z,15.00
2018-05-19T23:01:37.604Z,15.00
2018-05-19T23:04:05.910Z,15.00
2018-05-19T23:06:33.435Z,14.80
2018-05-19T23:09:01.065Z,14.70
2018-05-19T23:11:28.593Z,14.70
2018-05-19T23:13:56.144Z,14.80
2018-05-19T23:16:23.833Z,15.00
2018-05-19T23:18:51.393Z,15.00
2018-05-19T23:21:18.940Z,15.00
2018-05-19T23:23:46.613Z,14.90
2018-05-19T23:26:14.144Z,14.70
2018-05-19T23:28:41.721Z,14.70
2018-05-19T23:31:10.913Z,14.70
2018-05-19T23:33:38.473Z,14.70
2018-05-19T23:36:06.881Z,14.60
2018-05-19T23:38:35.160Z,14.60
2018-05-19T23:41:03.608Z,14.60
2018-05-19T23:43:31.133Z,14.60
2018-05-19T23:45:58.785Z,14.60
2018-05-19T23:48:26.317Z,14.60
2018-05-19T23:50:54.796Z,14.60
2018-05-19T23:53:23.080Z,14.60
2018-05-19T23:55:50.596Z,14.70
2018-05-19T23:58:18.217Z,14.60
